EPWA/WAW METAR and TAF weather

Enter ICAO airport designator
Station Type Date Time Source
EPWA METAR 2022/01/26 07:30 UTC NOAA

EPWA 260730Z 28008KT 6000 BKN004 02/01 Q1022 BECMG SCT008


Station Type Date Time Source
EPWA Decoded METAR 2022/01/26 07:30 UTC NOAA

Warszawa-Okecie, Poland (EPWA) 52-10N 020-58E 107M
Jan 26, 2022 - 02:30 AM EST / 2022.01.26 0730 UTC
Wind: from the W (280 degrees) at 9 MPH (8 KT):0
Visibility: 3 mile(s):0
Sky conditions: mostly cloudy
Temperature: 35 F (2 C)
Windchill: 28 F (-2 C):1
Dew Point: 33 F (1 C)
Relative Humidity: 93%
Pressure (altimeter): 30.18 in. Hg (1022 hPa)
ob: EPWA 260730Z 28008KT 6000 BKN004 02/01 Q1022 BECMG SCT008
cycle: 7

Station Type Date Time Source
EPWA TAF 2022/01/26 06:33 UTC NOAA

TAF TAF EPWA 260530Z 2606/2706 27007KT 6000 -RA BKN005 BKN013 PROB30
TEMPO 2606/2608 3000 RASN DZ BR BKN003
BECMG 2607/2610 BKN015
BECMG 2611/2613 BKN010
TEMPO 2612/2618 4000 -RASN BR BKN004
BECMG 2616/2619 SCT009 BKN015
TEMPO 2619/2703 28015G26KT 3000 SNRA BKN005 BKN010

Example: see airport list